sensor_id;sensor_type;location;lat;lon;timestamp;temperature;humidity
3402;DHT22;1714;49.756;8.610;2023-10-19T00:09:01;11.30;1.00
3402;DHT22;1714;49.756;8.610;2023-10-19T00:19:37;11.40;1.00
3402;DHT22;1714;49.756;8.610;2023-10-19T00:30:32;11.50;1.00
3402;DHT22;1714;49.756;8.610;2023-10-19T00:41:10;11.60;5.20
3402;DHT22;1714;49.756;8.610;2023-10-19T00:51:48;11.70;12.80
3402;DHT22;1714;49.756;8.610;2023-10-19T01:02:30;11.90;26.90
3402;DHT22;1714;49.756;8.610;2023-10-19T01:13:05;12.10;33.40
3402;DHT22;1714;49.756;8.610;2023-10-19T01:23:40;12.20;40.90
3402;DHT22;1714;49.756;8.610;2023-10-19T01:34:16;12.30;42.60
3402;DHT22;1714;49.756;8.610;2023-10-19T01:44:54;12.40;46.50
3402;DHT22;1714;49.756;8.610;2023-10-19T01:55:37;12.40;44.60
3402;DHT22;1714;49.756;8.610;2023-10-19T02:06:14;12.40;43.60
3402;DHT22;1714;49.756;8.610;2023-10-19T02:16:54;12.40;46.00
3402;DHT22;1714;49.756;8.610;2023-10-19T02:27:34;12.50;43.10
3402;DHT22;1714;49.756;8.610;2023-10-19T02:38:09;12.40;38.80
3402;DHT22;1714;49.756;8.610;2023-10-19T02:48:44;12.40;32.50
3402;DHT22;1714;49.756;8.610;2023-10-19T02:59:22;12.40;30.70
3402;DHT22;1714;49.756;8.610;2023-10-19T03:09:57;12.40;37.30
3402;DHT22;1714;49.756;8.610;2023-10-19T03:20:37;12.50;36.50
3402;DHT22;1714;49.756;8.610;2023-10-19T03:31:12;12.60;39.90
3402;DHT22;1714;49.756;8.610;2023-10-19T03:41:54;12.60;46.20
3402;DHT22;1714;49.756;8.610;2023-10-19T03:52:29;12.60;40.10
3402;DHT22;1714;49.756;8.610;2023-10-19T04:03:06;12.60;40.30
3402;DHT22;1714;49.756;8.610;2023-10-19T04:13:41;12.60;39.40
3402;DHT22;1714;49.756;8.610;2023-10-19T04:24:16;12.40;43.70
3402;DHT22;1714;49.756;8.610;2023-10-19T04:34:54;12.40;39.40
3402;DHT22;1714;49.756;8.610;2023-10-19T04:45:29;12.40;41.20
3402;DHT22;1714;49.756;8.610;2023-10-19T04:56:05;12.40;49.50
3402;DHT22;1714;49.756;8.610;2023-10-19T05:06:41;12.40;44.60
3402;DHT22;1714;49.756;8.610;2023-10-19T05:17:16;12.50;50.80
3402;DHT22;1714;49.756;8.610;2023-10-19T05:27:51;12.70;56.80
3402;DHT22;1714;49.756;8.610;2023-10-19T05:38:26;12.70;57.50
3402;DHT22;1714;49.756;8.610;2023-10-19T05:49:02;12.60;58.20
3402;DHT22;1714;49.756;8.610;2023-10-19T05:59:38;12.60;57.90
3402;DHT22;1714;49.756;8.610;2023-10-19T06:10:15;12.60;58.30
3402;DHT22;1714;49.756;8.610;2023-10-19T06:20:53;12.60;60.10
3402;DHT22;1714;49.756;8.610;2023-10-19T06:31:29;12.80;61.70
3402;DHT22;1714;49.756;8.610;2023-10-19T06:42:04;12.90;65.10
3402;DHT22;1714;49.756;8.610;2023-10-19T06:52:39;13.10;65.70
3402;DHT22;1714;49.756;8.610;2023-10-19T07:03:14;13.20;60.10
3402;DHT22;1714;49.756;8.610;2023-10-19T07:13:49;13.40;52.90
3402;DHT22;1714;49.756;8.610;2023-10-19T07:24:24;13.50;46.70
3402;DHT22;1714;49.756;8.610;2023-10-19T07:34:59;13.70;39.30
3402;DHT22;1714;49.756;8.610;2023-10-19T07:45:34;13.90;33.00
3402;DHT22;1714;49.756;8.610;2023-10-19T07:56:09;14.20;25.50
3402;DHT22;1714;49.756;8.610;2023-10-19T08:06:44;14.40;16.90
3402;DHT22;1714;49.756;8.610;2023-10-19T08:17:19;14.50;10.40
3402;DHT22;1714;49.756;8.610;2023-10-19T08:27:54;14.70;7.40
3402;DHT22;1714;49.756;8.610;2023-10-19T08:38:32;14.80;5.00
3402;DHT22;1714;49.756;8.610;2023-10-19T08:49:08;15.50;1.00
3402;DHT22;1714;49.756;8.610;2023-10-19T08:59:45;15.80;1.00
3402;DHT22;1714;49.756;8.610;2023-10-19T09:10:23;16.30;1.00
3402;DHT22;1714;49.756;8.610;2023-10-19T09:21:00;16.90;1.00
3402;DHT22;1714;49.756;8.610;2023-10-19T09:31:43;17.20;1.00
3402;DHT22;1714;49.756;8.610;2023-10-19T09:42:19;17.70;1.00
3402;DHT22;1714;49.756;8.610;2023-10-19T09:52:55;18.10;1.00
3402;DHT22;1714;49.756;8.610;2023-10-19T10:03:47;18.50;1.00
3402;DHT22;1714;49.756;8.610;2023-10-19T10:14:24;18.70;1.00
3402;DHT22;1714;49.756;8.610;2023-10-19T10:24:59;19.10;1.00
3402;DHT22;1714;49.756;8.610;2023-10-19T10:46:15;19.70;1.00
3402;DHT22;1714;49.756;8.610;2023-10-19T10:56:50;19.50;1.00
3402;DHT22;1714;49.756;8.610;2023-10-19T11:07:25;18.90;1.00
3402;DHT22;1714;49.756;8.610;2023-10-19T11:18:00;18.80;1.00
3402;DHT22;1714;49.756;8.610;2023-10-19T11:28:37;18.70;1.00
3402;DHT22;1714;49.756;8.610;2023-10-19T11:39:28;18.60;1.00
3402;DHT22;1714;49.756;8.610;2023-10-19T11:50:04;18.40;1.00
3402;DHT22;1714;49.756;8.610;2023-10-19T12:00:38;18.30;1.00
3402;DHT22;1714;49.756;8.610;2023-10-19T12:11:13;18.30;1.00
3402;DHT22;1714;49.756;8.610;2023-10-19T12:21:54;18.10;1.00
3402;DHT22;1714;49.756;8.610;2023-10-19T12:32:29;17.90;1.00
3402;DHT22;1714;49.756;8.610;2023-10-19T12:43:04;17.70;1.00
3402;DHT22;1714;49.756;8.610;2023-10-19T12:53:42;17.70;1.00
3402;DHT22;1714;49.756;8.610;2023-10-19T13:04:17;17.40;1.00
3402;DHT22;1714;49.756;8.610;2023-10-19T13:14:53;17.30;1.00
3402;DHT22;1714;49.756;8.610;2023-10-19T13:25:32;17.30;1.00
3402;DHT22;1714;49.756;8.610;2023-10-19T13:36:20;17.20;1.00
3402;DHT22;1714;49.756;8.610;2023-10-19T13:46:55;16.90;1.00
3402;DHT22;1714;49.756;8.610;2023-10-19T13:57:31;16.70;1.00
3402;DHT22;1714;49.756;8.610;2023-10-19T14:08:06;16.60;1.00
3402;DHT22;1714;49.756;8.610;2023-10-19T14:18:41;16.60;1.00
3402;DHT22;1714;49.756;8.610;2023-10-19T14:29:18;16.60;1.00
3402;DHT22;1714;49.756;8.610;2023-10-19T14:39:52;16.40;1.00
3402;DHT22;1714;49.756;8.610;2023-10-19T14:50:27;16.40;1.00
3402;DHT22;1714;49.756;8.610;2023-10-19T15:01:02;16.30;1.00
3402;DHT22;1714;49.756;8.610;2023-10-19T15:11:37;16.30;1.00
3402;DHT22;1714;49.756;8.610;2023-10-19T15:22:12;16.40;1.00
3402;DHT22;1714;49.756;8.610;2023-10-19T15:32:49;16.50;1.00
3402;DHT22;1714;49.756;8.610;2023-10-19T15:43:24;16.60;1.00
3402;DHT22;1714;49.756;8.610;2023-10-19T15:53:59;16.70;1.00
3402;DHT22;1714;49.756;8.610;2023-10-19T16:04:37;16.50;1.40
3402;DHT22;1714;49.756;8.610;2023-10-19T16:15:12;16.40;1.40
3402;DHT22;1714;49.756;8.610;2023-10-19T16:25:47;16.00;1.00
3402;DHT22;1714;49.756;8.610;2023-10-19T16:36:22;15.80;1.00
3402;DHT22;1714;49.756;8.610;2023-10-19T16:46:57;15.60;1.00
3402;DHT22;1714;49.756;8.610;2023-10-19T16:57:33;15.40;1.00
3402;DHT22;1714;49.756;8.610;2023-10-19T17:08:08;15.40;1.00
3402;DHT22;1714;49.756;8.610;2023-10-19T17:18:44;15.30;1.00
3402;DHT22;1714;49.756;8.610;2023-10-19T17:29:19;15.00;1.00
3402;DHT22;1714;49.756;8.610;2023-10-19T17:39:54;14.90;1.00
3402;DHT22;1714;49.756;8.610;2023-10-19T17:50:30;14.80;1.00
3402;DHT22;1714;49.756;8.610;2023-10-19T18:01:06;14.60;7.40
3402;DHT22;1714;49.756;8.610;2023-10-19T18:11:45;14.60;5.00
3402;DHT22;1714;49.756;8.610;2023-10-19T18:22:20;14.60;1.00
3402;DHT22;1714;49.756;8.610;2023-10-19T18:32:55;14.50;1.00
3402;DHT22;1714;49.756;8.610;2023-10-19T18:43:30;14.40;1.00
3402;DHT22;1714;49.756;8.610;2023-10-19T18:54:05;14.40;8.20
3402;DHT22;1714;49.756;8.610;2023-10-19T19:04:40;14.40;10.80
3402;DHT22;1714;49.756;8.610;2023-10-19T19:15:15;14.30;7.50
3402;DHT22;1714;49.756;8.610;2023-10-19T19:25:51;14.30;11.90
3402;DHT22;1714;49.756;8.610;2023-10-19T19:36:26;14.40;10.60
3402;DHT22;1714;49.756;8.610;2023-10-19T19:47:02;14.30;11.40
3402;DHT22;1714;49.756;8.610;2023-10-19T19:57:37;14.30;10.50
3402;DHT22;1714;49.756;8.610;2023-10-19T20:08:11;14.20;13.10
3402;DHT22;1714;49.756;8.610;2023-10-19T20:18:47;14.30;17.30
3402;DHT22;1714;49.756;8.610;2023-10-19T20:29:22;14.30;16.10
3402;DHT22;1714;49.756;8.610;2023-10-19T20:39:57;14.30;18.90
3402;DHT22;1714;49.756;8.610;2023-10-19T20:50:34;14.40;17.30
3402;DHT22;1714;49.756;8.610;2023-10-19T21:01:10;14.30;16.30
3402;DHT22;1714;49.756;8.610;2023-10-19T21:11:47;14.30;21.60
3402;DHT22;1714;49.756;8.610;2023-10-19T21:22:21;14.30;20.00
3402;DHT22;1714;49.756;8.610;2023-10-19T21:32:56;14.30;23.00
3402;DHT22;1714;49.756;8.610;2023-10-19T21:43:31;14.30;23.70
3402;DHT22;1714;49.756;8.610;2023-10-19T21:54:06;14.30;25.40
3402;DHT22;1714;49.756;8.610;2023-10-19T22:04:43;14.30;26.20
